createdAt,value
2022-11-26T00:00:59.787Z,0
2022-11-26T00:02:00.407Z,0
2022-11-26T00:03:01.082Z,0
2022-11-26T00:04:01.696Z,0
2022-11-26T00:05:02.292Z,0
2022-11-26T00:06:02.889Z,0
2022-11-26T00:07:03.499Z,0
2022-11-26T00:08:04.090Z,0
2022-11-26T00:09:04.684Z,0
2022-11-26T00:10:05.278Z,0
2022-11-26T00:11:05.875Z,0
2022-11-26T00:12:06.467Z,0
2022-11-26T00:13:07.063Z,0
2022-11-26T00:14:07.677Z,0
2022-11-26T00:15:08.272Z,0
2022-11-26T00:16:08.886Z,0
2022-11-26T00:17:09.460Z,0
2022-11-26T00:18:10.060Z,0
2022-11-26T00:19:10.648Z,0
2022-11-26T00:20:11.240Z,0
2022-11-26T00:21:11.838Z,0
2022-11-26T00:22:12.431Z,0
2022-11-26T00:23:13.044Z,0
2022-11-26T00:24:13.659Z,0
2022-11-26T00:25:14.256Z,0
2022-11-26T00:26:14.872Z,0
2022-11-26T00:27:15.486Z,0
2022-11-26T00:28:16.079Z,0
2022-11-26T00:29:16.674Z,0
2022-11-26T00:30:17.276Z,0
2022-11-26T00:31:17.891Z,0
2022-11-26T00:32:18.571Z,0
2022-11-26T00:33:19.064Z,0
2022-11-26T00:34:19.676Z,0
2022-11-26T00:35:20.270Z,0
2022-11-26T00:36:20.863Z,0
2022-11-26T00:37:21.458Z,0
2022-11-26T00:38:22.054Z,0
2022-11-26T00:39:22.648Z,0
2022-11-26T00:40:23.241Z,0
2022-11-26T00:41:23.835Z,0
2022-11-26T00:42:24.431Z,0
2022-11-26T00:43:25.043Z,0
2022-11-26T00:44:25.636Z,0
2022-11-26T00:45:26.284Z,0
2022-11-26T00:46:26.894Z,0
2022-11-26T00:47:27.432Z,0
2022-11-26T00:48:28.027Z,0
2022-11-26T00:49:28.642Z,0
2022-11-26T00:50:29.232Z,0
2022-11-26T00:51:29.825Z,0
2022-11-26T00:52:30.420Z,0
2022-11-26T00:53:31.014Z,0
2022-11-26T00:54:31.612Z,0
2022-11-26T00:55:32.203Z,0
2022-11-26T00:56:37.766Z,0
2022-11-26T00:57:34.383Z,0
2022-11-26T00:58:34.976Z,0
2022-11-26T00:59:35.571Z,0
2022-11-26T01:00:36.236Z,0
2022-11-26T01:01:37.040Z,0
2022-11-26T01:02:37.696Z,0
2022-11-26T01:03:38.290Z,0
2022-11-26T01:04:39.133Z,0
2022-11-26T01:05:39.888Z,0
2022-11-26T01:06:40.481Z,0
2022-11-26T01:07:41.130Z,0
2022-11-26T01:08:41.683Z,0
2022-11-26T01:09:42.298Z,0
2022-11-26T01:10:42.913Z,0
2022-11-26T01:11:43.505Z,0
2022-11-26T01:12:44.118Z,0
2022-11-26T01:13:44.713Z,0
2022-11-26T01:14:45.307Z,0
2022-11-26T01:15:45.903Z,0
2022-11-26T01:16:46.583Z,0
2022-11-26T01:17:47.157Z,0
2022-11-26T01:18:47.750Z,0
2022-11-26T01:19:48.344Z,0
2022-11-26T01:20:48.939Z,0
2022-11-26T01:21:49.534Z,0
2022-11-26T01:22:50.129Z,0
2022-11-26T01:23:50.722Z,0
2022-11-26T01:24:51.314Z,0
2022-11-26T01:25:51.910Z,0
2022-11-26T01:26:52.499Z,0
2022-11-26T01:27:53.113Z,0
2022-11-26T01:28:53.707Z,0
2022-11-26T01:29:54.301Z,0
2022-11-26T01:30:54.915Z,0
2022-11-26T01:31:55.571Z,0
2022-11-26T01:32:56.120Z,0
2022-11-26T01:33:56.720Z,0
2022-11-26T01:34:57.309Z,0
2022-11-26T01:35:57.910Z,0
2022-11-26T01:36:58.507Z,0
2022-11-26T01:37:59.111Z,0
2022-11-26T01:38:59.706Z,0
2022-11-26T01:40:00.319Z,0
2022-11-26T01:41:00.914Z,0
2022-11-26T01:42:01.527Z,0
2022-11-26T01:43:02.121Z,0
2022-11-26T01:44:02.718Z,0
2022-11-26T01:45:03.312Z,0
2022-11-26T01:46:03.969Z,0
2022-11-26T01:47:04.557Z,0
2022-11-26T01:48:05.152Z,0
2022-11-26T01:49:05.747Z,0
2022-11-26T01:50:06.342Z,0
2022-11-26T01:51:06.936Z,0
2022-11-26T01:52:07.530Z,0
2022-11-26T01:53:08.123Z,0
2022-11-26T01:54:08.722Z,0
2022-11-26T01:55:09.336Z,0
2022-11-26T01:56:09.932Z,0
2022-11-26T01:57:10.528Z,0
2022-11-26T01:58:11.121Z,0
2022-11-26T01:59:11.715Z,0
2022-11-26T02:00:12.329Z,0
2022-11-26T02:01:12.981Z,0
2022-11-26T02:02:13.639Z,0
2022-11-26T02:03:14.140Z,0
2022-11-26T02:04:14.737Z,0
2022-11-26T02:05:15.327Z,0
2022-11-26T02:06:15.924Z,0
2022-11-26T02:07:16.605Z,0
2022-11-26T02:08:17.231Z,0
2022-11-26T02:09:17.842Z,0
2022-11-26T02:10:18.483Z,0
2022-11-26T02:11:19.058Z,0
2022-11-26T02:12:19.667Z,0
2022-11-26T02:13:20.261Z,0
2022-11-26T02:14:20.857Z,0
2022-11-26T02:15:21.451Z,0
2022-11-26T02:16:22.095Z,0
2022-11-26T02:17:22.699Z,0
2022-11-26T02:18:23.292Z,0
2022-11-26T02:19:23.887Z,0
2022-11-26T02:20:24.481Z,0
2022-11-26T02:21:25.074Z,0
2022-11-26T02:22:25.670Z,0
2022-11-26T02:23:26.263Z,0
2022-11-26T02:24:26.857Z,0
2022-11-26T02:25:27.450Z,0
2022-11-26T02:26:28.045Z,0
2022-11-26T02:27:28.637Z,0
2022-11-26T02:28:29.229Z,0
2022-11-26T02:29:29.825Z,0
2022-11-26T02:30:30.418Z,0
2022-11-26T02:31:31.063Z,0
2022-11-26T02:32:31.623Z,0
2022-11-26T02:33:32.217Z,0
2022-11-26T02:34:37.274Z,0
2022-11-26T02:35:34.393Z,0
2022-11-26T02:36:34.985Z,0
2022-11-26T02:37:35.578Z,0
2022-11-26T02:38:36.171Z,0
2022-11-26T02:39:36.767Z,0
2022-11-26T02:40:37.358Z,0
2022-11-26T02:41:37.955Z,0
2022-11-26T02:42:38.546Z,0
2022-11-26T02:43:39.142Z,0
2022-11-26T02:44:40.052Z,0
2022-11-26T02:45:40.806Z,0
2022-11-26T02:46:41.365Z,0
2022-11-26T02:47:41.961Z,0
2022-11-26T02:48:42.552Z,0
2022-11-26T02:49:43.148Z,0
2022-11-26T02:50:43.742Z,0
2022-11-26T02:51:44.337Z,0
2022-11-26T02:52:44.928Z,0
2022-11-26T02:53:45.522Z,0
2022-11-26T02:54:46.118Z,0
2022-11-26T02:55:46.714Z,0
2022-11-26T02:56:47.305Z,0
2022-11-26T02:57:47.919Z,0
2022-11-26T02:58:48.512Z,0
2022-11-26T02:59:49.108Z,0
2022-11-26T03:00:49.766Z,0
2022-11-26T03:01:50.331Z,0
2022-11-26T03:02:50.926Z,0
2022-11-26T03:03:51.700Z,0
2022-11-26T03:04:52.247Z,0
2022-11-26T03:05:52.842Z,0
2022-11-26T03:06:53.434Z,0
2022-11-26T03:07:54.103Z,0
2022-11-26T03:08:54.637Z,0
2022-11-26T03:09:55.249Z,0
2022-11-26T03:10:55.845Z,0
2022-11-26T03:11:56.506Z,0
2022-11-26T03:12:57.067Z,0
2022-11-26T03:13:57.661Z,0
2022-11-26T03:14:58.254Z,0
2022-11-26T03:15:58.900Z,0
2022-11-26T03:16:59.460Z,0
2022-11-26T03:18:00.077Z,0
2022-11-26T03:19:00.666Z,0
2022-11-26T03:20:01.262Z,0
2022-11-26T03:21:01.851Z,0
2022-11-26T03:22:02.446Z,0
2022-11-26T03:23:03.038Z,0
2022-11-26T03:24:03.634Z,0
2022-11-26T03:25:04.227Z,0
2022-11-26T03:26:04.824Z,0
2022-11-26T03:27:05.418Z,0
2022-11-26T03:28:06.013Z,0
2022-11-26T03:29:06.603Z,0
2022-11-26T03:30:07.198Z,0
2022-11-26T03:31:07.845Z,0
2022-11-26T03:32:08.426Z,0
2022-11-26T03:33:08.997Z,0
2022-11-26T03:34:09.591Z,0
2022-11-26T03:35:10.187Z,0
2022-11-26T03:36:10.778Z,0
2022-11-26T03:37:11.370Z,0
2022-11-26T03:38:11.966Z,0
2022-11-26T03:39:12.562Z,0
2022-11-26T03:40:13.155Z,0
2022-11-26T03:41:13.751Z,0
2022-11-26T03:42:14.349Z,0
2022-11-26T03:43:14.937Z,0
2022-11-26T03:44:15.534Z,0
2022-11-26T03:45:16.318Z,0
2022-11-26T03:46:16.990Z,0
2022-11-26T03:47:17.608Z,0
2022-11-26T03:48:18.203Z,0
2022-11-26T03:49:18.839Z,0
2022-11-26T03:50:19.432Z,0
2022-11-26T03:51:20.046Z,0
2022-11-26T03:52:20.641Z,0
2022-11-26T03:53:21.232Z,0
2022-11-26T03:54:21.844Z,0
2022-11-26T03:55:22.458Z,0
2022-11-26T03:56:23.055Z,0
2022-11-26T03:57:23.646Z,0
2022-11-26T03:58:24.242Z,0
2022-11-26T03:59:24.837Z,0
2022-11-26T04:00:25.433Z,0
2022-11-26T04:01:26.058Z,0
2022-11-26T04:02:26.637Z,0
2022-11-26T04:03:27.270Z,0
2022-11-26T04:04:27.822Z,0
2022-11-26T04:05:28.416Z,0
2022-11-26T04:06:29.010Z,0
2022-11-26T04:07:29.681Z,0
2022-11-26T04:08:30.211Z,0
2022-11-26T04:09:30.816Z,0
2022-11-26T04:10:31.404Z,0
2022-11-26T04:11:31.994Z,0
2022-11-26T04:12:32.604Z,0
2022-11-26T04:13:33.196Z,0
2022-11-26T04:14:33.810Z,0
2022-11-26T04:15:34.403Z,0
2022-11-26T04:16:35.025Z,0
2022-11-26T04:17:35.616Z,0
2022-11-26T04:18:36.244Z,0
2022-11-26T04:19:36.856Z,0
2022-11-26T04:20:37.453Z,0
2022-11-26T04:21:38.065Z,0
2022-11-26T04:22:38.659Z,0
2022-11-26T04:23:39.254Z,0
2022-11-26T04:24:40.290Z,0
2022-11-26T04:25:41.030Z,0
2022-11-26T04:26:41.628Z,0
2022-11-26T04:27:42.238Z,0
2022-11-26T04:28:42.834Z,0
2022-11-26T04:29:43.447Z,0
2022-11-26T04:30:44.046Z,0
2022-11-26T04:31:44.719Z,0
2022-11-26T04:32:45.278Z,0
2022-11-26T04:33:45.872Z,0
2022-11-26T04:34:46.472Z,0
2022-11-26T04:35:47.063Z,0
2022-11-26T04:36:47.656Z,0
2022-11-26T04:37:48.250Z,0
2022-11-26T04:38:48.842Z,0
2022-11-26T04:39:49.438Z,0
2022-11-26T04:40:50.056Z,0
2022-11-26T04:41:50.645Z,0
2022-11-26T04:42:51.242Z,0
2022-11-26T04:43:51.836Z,0
2022-11-26T04:44:52.432Z,0
2022-11-26T04:45:53.069Z,0
2022-11-26T04:46:53.628Z,0
2022-11-26T04:47:54.244Z,0
2022-11-26T04:48:54.858Z,0
2022-11-26T04:49:55.453Z,0
2022-11-26T04:50:56.047Z,0
2022-11-26T04:51:56.638Z,0
2022-11-26T04:52:57.232Z,0
2022-11-26T04:54:02.589Z,0
2022-11-26T04:54:59.415Z,0
2022-11-26T04:56:00.007Z,0
2022-11-26T04:57:00.601Z,0
2022-11-26T04:58:01.192Z,0
2022-11-26T04:59:01.786Z,0
2022-11-26T05:00:02.397Z,0
2022-11-26T05:01:03.035Z,0
2022-11-26T05:02:03.613Z,0
2022-11-26T05:03:04.268Z,0
2022-11-26T05:04:04.836Z,0
2022-11-26T05:05:05.431Z,0
2022-11-26T05:06:06.023Z,0
2022-11-26T05:07:06.616Z,0
2022-11-26T05:08:07.208Z,0
2022-11-26T05:09:07.808Z,0
2022-11-26T05:10:08.395Z,0
2022-11-26T05:11:08.989Z,0
2022-11-26T05:12:09.583Z,0
2022-11-26T05:13:10.174Z,0
2022-11-26T05:14:10.769Z,0
2022-11-26T05:15:11.382Z,0
2022-11-26T05:16:12.002Z,0
2022-11-26T05:17:12.587Z,0
2022-11-26T05:18:13.179Z,0
2022-11-26T05:19:13.775Z,0
2022-11-26T05:20:14.368Z,0
2022-11-26T05:21:14.963Z,0
2022-11-26T05:22:15.578Z,0
2022-11-26T05:23:16.174Z,0
2022-11-26T05:24:16.769Z,0
2022-11-26T05:25:17.368Z,0
2022-11-26T05:26:17.957Z,0
2022-11-26T05:27:18.551Z,0
2022-11-26T05:28:19.163Z,0
2022-11-26T05:29:19.775Z,0
2022-11-26T05:30:20.369Z,0
2022-11-26T05:31:21.019Z,0
2022-11-26T05:32:21.589Z,0
2022-11-26T05:33:22.183Z,0
2022-11-26T05:34:22.777Z,0
2022-11-26T05:35:23.371Z,0
2022-11-26T05:36:23.985Z,0
2022-11-26T05:37:24.598Z,0
2022-11-26T05:38:25.191Z,0
2022-11-26T05:39:25.787Z,0
2022-11-26T05:40:26.380Z,0
2022-11-26T05:41:26.979Z,0
2022-11-26T05:42:27.569Z,0
2022-11-26T05:43:28.165Z,0
2022-11-26T05:44:28.758Z,0
2022-11-26T05:45:29.388Z,0
2022-11-26T05:46:29.954Z,0
2022-11-26T05:47:30.545Z,0
2022-11-26T05:48:31.139Z,0
2022-11-26T05:49:31.735Z,0
2022-11-26T05:50:32.349Z,0
2022-11-26T05:51:32.963Z,0
2022-11-26T05:52:33.577Z,0
2022-11-26T05:53:34.172Z,0
2022-11-26T05:54:34.764Z,0
2022-11-26T05:55:35.366Z,0
2022-11-26T05:56:35.955Z,0
2022-11-26T05:57:36.550Z,0
2022-11-26T05:58:37.143Z,0
2022-11-26T05:59:37.741Z,0
2022-11-26T06:00:38.335Z,0
2022-11-26T06:01:38.929Z,0
2022-11-26T06:02:39.698Z,0
2022-11-26T06:03:40.212Z,0
2022-11-26T06:04:41.133Z,0
2022-11-26T06:05:41.842Z,0
2022-11-26T06:06:42.435Z,0
2022-11-26T06:07:44.983Z,0
2022-11-26T06:08:44.617Z,0
2022-11-26T06:09:45.217Z,0
2022-11-26T06:10:45.806Z,0
2022-11-26T06:11:46.403Z,0
2022-11-26T06:12:46.999Z,0
2022-11-26T06:13:47.596Z,0
2022-11-26T06:14:48.668Z,0
2022-11-26T06:15:49.504Z,0
2022-11-26T06:16:50.157Z,0
2022-11-26T06:17:50.721Z,0
2022-11-26T06:18:51.336Z,0
2022-11-26T06:19:51.932Z,0
2022-11-26T06:20:52.544Z,0
2022-11-26T06:21:53.140Z,0
2022-11-26T06:22:53.752Z,0
2022-11-26T06:23:59.068Z,0
2022-11-26T06:24:54.962Z,0
2022-11-26T06:25:55.574Z,4
2022-11-26T06:26:56.168Z,4
2022-11-26T06:27:56.762Z,0
2022-11-26T06:28:57.358Z,4
2022-11-26T06:29:57.973Z,4
2022-11-26T06:30:58.568Z,4
2022-11-26T06:31:59.196Z,4
2022-11-26T06:32:59.773Z,8
2022-11-26T06:34:00.365Z,8
2022-11-26T06:35:00.960Z,8
2022-11-26T06:36:01.554Z,12
2022-11-26T06:37:02.150Z,12
2022-11-26T06:38:02.746Z,12
2022-11-26T06:39:03.342Z,20
2022-11-26T06:40:03.936Z,20
2022-11-26T06:41:04.533Z,24
2022-11-26T06:42:05.145Z,28
2022-11-26T06:43:05.742Z,28
2022-11-26T06:44:06.336Z,32
2022-11-26T06:45:06.936Z,40
2022-11-26T06:46:07.607Z,44
2022-11-26T06:47:08.200Z,52
2022-11-26T06:48:08.795Z,56
2022-11-26T06:49:09.410Z,64
2022-11-26T06:50:10.950Z,72
2022-11-26T06:51:10.615Z,76
2022-11-26T06:52:11.211Z,88
2022-11-26T06:53:11.829Z,92
2022-11-26T06:54:12.425Z,96
2022-11-26T06:55:13.026Z,104
2022-11-26T06:56:18.357Z,116
2022-11-26T06:57:15.210Z,120
2022-11-26T06:58:15.808Z,144
2022-11-26T06:59:16.406Z,156
2022-11-26T07:00:17.025Z,184
2022-11-26T07:01:17.683Z,224
2022-11-26T07:02:18.297Z,224
2022-11-26T07:03:23.608Z,224
2022-11-26T07:04:20.468Z,240
2022-11-26T07:05:21.064Z,252
2022-11-26T07:06:21.687Z,276
2022-11-26T07:07:22.337Z,292
2022-11-26T07:08:22.879Z,300
2022-11-26T07:09:23.494Z,320
2022-11-26T07:10:24.114Z,316
2022-11-26T07:11:24.710Z,340
2022-11-26T07:12:25.310Z,384
2022-11-26T07:13:25.920Z,416
2022-11-26T07:14:26.507Z,460
2022-11-26T07:15:27.104Z,432
2022-11-26T07:16:27.779Z,440
2022-11-26T07:17:28.346Z,484
2022-11-26T07:18:28.943Z,528
2022-11-26T07:19:29.539Z,564
2022-11-26T07:20:30.156Z,612
2022-11-26T07:21:30.759Z,632
2022-11-26T07:22:31.374Z,664
2022-11-26T07:23:31.974Z,684
2022-11-26T07:24:32.573Z,732
2022-11-26T07:25:33.170Z,808
2022-11-26T07:26:33.765Z,824
2022-11-26T07:27:34.366Z,844
2022-11-26T07:28:34.960Z,820
2022-11-26T07:29:35.561Z,952
2022-11-26T07:30:36.159Z,1012
2022-11-26T07:31:36.828Z,968
2022-11-26T07:32:37.399Z,1032
2022-11-26T07:33:38.000Z,1044
2022-11-26T07:34:38.915Z,1084
2022-11-26T07:35:39.639Z,1124
2022-11-26T07:36:40.238Z,1320
2022-11-26T07:37:40.838Z,1304
2022-11-26T07:38:41.437Z,1324
2022-11-26T07:39:42.041Z,1424
2022-11-26T07:40:42.635Z,1452
2022-11-26T07:41:43.233Z,1372
2022-11-26T07:42:43.833Z,1456
2022-11-26T07:43:44.437Z,1744
2022-11-26T07:44:45.035Z,2008
2022-11-26T07:45:45.667Z,2600
2022-11-26T07:46:46.250Z,2296
2022-11-26T07:47:46.850Z,1816
2022-11-26T07:48:47.445Z,2256
2022-11-26T07:49:48.048Z,2876
2022-11-26T07:50:48.649Z,2996
2022-11-26T07:51:49.248Z,2096
2022-11-26T07:52:49.869Z,1992
2022-11-26T07:53:50.473Z,2148
2022-11-26T07:54:51.067Z,2280
2022-11-26T07:55:51.666Z,2524
2022-11-26T07:56:52.268Z,2944
2022-11-26T07:57:52.866Z,2088
2022-11-26T07:58:53.471Z,1972
2022-11-26T07:59:54.074Z,1784
2022-11-26T08:00:55.061Z,2044
2022-11-26T08:01:55.796Z,1928
2022-11-26T08:02:56.409Z,1944
2022-11-26T08:03:56.982Z,1828
2022-11-26T08:04:57.576Z,1780
2022-11-26T08:05:58.175Z,2148
2022-11-26T08:06:58.776Z,1984
2022-11-26T08:07:59.440Z,1740
2022-11-26T08:09:00.000Z,1964
2022-11-26T08:10:00.601Z,2172
2022-11-26T08:11:01.197Z,2340
2022-11-26T08:12:01.816Z,2304
2022-11-26T08:13:02.412Z,2112
2022-11-26T08:14:03.014Z,2468
2022-11-26T08:15:03.611Z,2580
2022-11-26T08:16:04.285Z,2704
2022-11-26T08:17:04.866Z,2416
2022-11-26T08:18:05.467Z,2856
2022-11-26T08:19:06.072Z,3076
2022-11-26T08:20:06.672Z,3560
2022-11-26T08:21:07.264Z,3712
2022-11-26T08:22:07.865Z,3460
2022-11-26T08:23:08.466Z,3484
2022-11-26T08:24:09.068Z,3516
2022-11-26T08:25:09.667Z,3436
2022-11-26T08:26:33.059Z,3688
2022-11-26T08:27:11.880Z,3884
2022-11-26T08:28:12.479Z,3820
2022-11-26T08:29:13.080Z,3776
2022-11-26T08:30:13.695Z,4136
2022-11-26T08:31:14.336Z,3400
2022-11-26T08:32:14.901Z,3608
2022-11-26T08:33:15.502Z,3964
2022-11-26T08:34:16.144Z,4028
2022-11-26T08:35:16.714Z,4584
2022-11-26T08:36:17.365Z,4352
2022-11-26T08:37:17.967Z,4616
2022-11-26T08:38:18.568Z,4632
2022-11-26T08:39:19.167Z,5248
2022-11-26T08:40:19.788Z,5716
2022-11-26T08:41:20.383Z,4456
2022-11-26T08:42:20.986Z,5544
2022-11-26T08:43:21.592Z,6288
2022-11-26T08:44:22.202Z,5752
2022-11-26T08:45:22.804Z,6052
2022-11-26T08:46:23.452Z,6512
2022-11-26T08:47:24.021Z,7044
2022-11-26T08:48:27.949Z,6080
2022-11-26T08:49:26.214Z,5744
2022-11-26T08:50:26.817Z,7012
2022-11-26T08:51:27.424Z,8216
2022-11-26T08:52:28.053Z,6132
2022-11-26T08:53:28.652Z,5672
2022-11-26T08:54:29.255Z,6432
2022-11-26T08:55:53.397Z,9052
2022-11-26T08:56:31.448Z,10532
2022-11-26T08:57:32.051Z,10068
2022-11-26T08:58:32.653Z,8644
2022-11-26T08:59:33.249Z,7312
2022-11-26T09:00:33.851Z,8752
2022-11-26T09:01:34.552Z,9568
2022-11-26T09:02:35.092Z,7208
2022-11-26T09:03:35.667Z,5808
2022-11-26T09:04:36.594Z,5748
2022-11-26T09:05:37.545Z,7328
2022-11-26T09:06:38.152Z,8256
2022-11-26T09:07:38.776Z,8164
2022-11-26T09:08:39.349Z,8276
2022-11-26T09:09:39.948Z,9760
2022-11-26T09:10:40.551Z,8668
2022-11-26T09:11:41.149Z,8624
2022-11-26T09:12:41.750Z,9328
2022-11-26T09:13:42.353Z,6260
2022-11-26T09:14:43.311Z,6664
2022-11-26T09:15:44.007Z,7684
2022-11-26T09:16:44.675Z,8000
2022-11-26T09:17:45.266Z,6760
2022-11-26T09:18:45.868Z,5580
2022-11-26T09:19:46.471Z,6192
2022-11-26T09:20:47.090Z,7280
2022-11-26T09:21:47.737Z,10060
2022-11-26T09:22:48.316Z,7676
2022-11-26T09:23:48.958Z,8344
2022-11-26T09:24:49.514Z,9068
2022-11-26T09:25:50.113Z,9504
2022-11-26T09:26:50.712Z,9400
2022-11-26T09:27:51.313Z,10844
2022-11-26T09:28:51.915Z,11356
2022-11-26T09:29:52.536Z,8160
2022-11-26T09:30:53.136Z,10460
2022-11-26T09:32:23.627Z,13308
2022-11-26T09:32:55.406Z,13552
2022-11-26T09:33:56.011Z,11896
2022-11-26T09:34:56.630Z,11012
2022-11-26T09:35:57.227Z,9568
2022-11-26T09:36:57.830Z,13504
2022-11-26T09:37:58.426Z,8048
2022-11-26T09:38:59.026Z,8736
2022-11-26T09:39:59.624Z,8096
2022-11-26T09:41:00.225Z,9464
2022-11-26T09:42:00.822Z,12380
2022-11-26T09:43:01.427Z,11528
2022-11-26T09:44:02.028Z,11736
2022-11-26T09:45:02.628Z,13720
2022-11-26T09:46:03.263Z,12436
2022-11-26T09:47:12.076Z,14988
2022-11-26T09:48:05.339Z,13424
2022-11-26T09:49:05.938Z,10728
2022-11-26T09:50:06.537Z,15040
2022-11-26T09:51:07.139Z,15496
2022-11-26T09:52:07.736Z,8880
2022-11-26T09:53:08.334Z,9400
2022-11-26T09:54:08.936Z,8492
2022-11-26T09:55:09.533Z,7432
2022-11-26T09:56:10.131Z,9520
2022-11-26T09:57:10.731Z,9992
2022-11-26T09:58:11.330Z,8296
2022-11-26T09:59:11.931Z,8564
2022-11-26T10:00:12.530Z,9040
2022-11-26T10:01:13.271Z,8548
2022-11-26T10:02:13.923Z,7908
2022-11-26T10:03:14.481Z,12240
2022-11-26T10:04:15.081Z,13828
2022-11-26T10:05:19.900Z,15532
2022-11-26T10:06:17.276Z,15228
2022-11-26T10:07:17.922Z,16980
2022-11-26T10:08:18.498Z,19232
2022-11-26T10:09:19.096Z,17760
2022-11-26T10:10:19.695Z,16872
2022-11-26T10:11:20.316Z,12668
2022-11-26T10:12:25.831Z,12372
2022-11-26T10:13:22.513Z,16384
2022-11-26T10:14:23.113Z,17504
2022-11-26T10:15:23.716Z,13684
2022-11-26T10:16:24.376Z,16296
2022-11-26T10:17:24.929Z,15164
2022-11-26T10:18:25.548Z,16668
2022-11-26T10:19:26.148Z,15064
2022-11-26T10:20:26.747Z,14272
2022-11-26T10:21:51.740Z,15120
2022-11-26T10:22:28.942Z,15456
2022-11-26T10:23:29.539Z,17696
2022-11-26T10:24:30.138Z,23680
2022-11-26T10:25:30.740Z,32576
2022-11-26T10:26:31.342Z,29344
2022-11-26T10:27:31.941Z,22592
2022-11-26T10:28:32.539Z,34688
2022-11-26T10:29:33.140Z,33184
2022-11-26T10:30:33.739Z,38848
2022-11-26T10:31:34.402Z,34048
2022-11-26T10:32:34.958Z,27776
2022-11-26T10:33:35.559Z,41312
2022-11-26T10:34:39.183Z,40832
2022-11-26T10:35:37.772Z,21984
2022-11-26T10:36:38.392Z,42112
2022-11-26T10:37:39.012Z,43392
2022-11-26T10:38:39.611Z,40992
2022-11-26T10:39:40.210Z,30112
2022-11-26T10:40:40.812Z,32064
2022-11-26T10:41:41.432Z,27872
2022-11-26T10:42:42.039Z,33760
2022-11-26T10:43:42.652Z,24320
2022-11-26T10:44:43.294Z,50624
2022-11-26T10:45:43.850Z,47136
2022-11-26T10:46:44.484Z,46624
2022-11-26T10:47:45.086Z,39104
2022-11-26T10:48:45.734Z,34112
2022-11-26T10:49:46.330Z,23904
2022-11-26T10:50:48.076Z,46976
2022-11-26T10:51:48.525Z,41632
2022-11-26T10:52:49.125Z,41760
2022-11-26T10:53:49.724Z,39168
2022-11-26T10:54:50.326Z,43392
2022-11-26T10:55:50.923Z,42304
2022-11-26T10:56:51.527Z,44416
2022-11-26T10:57:52.135Z,36704
2022-11-26T10:58:52.744Z,38080
2022-11-26T10:59:53.347Z,40384
2022-11-26T11:00:54.034Z,37856
2022-11-26T11:01:57.606Z,42912
2022-11-26T11:02:55.229Z,48480
2022-11-26T11:04:11.282Z,45376
2022-11-26T11:04:57.420Z,45664
2022-11-26T11:05:58.020Z,40384
2022-11-26T11:06:58.621Z,35456
2022-11-26T11:07:59.261Z,48352
2022-11-26T11:08:59.878Z,44288
2022-11-26T11:10:00.502Z,44800
2022-11-26T11:11:01.101Z,40768
2022-11-26T11:12:01.698Z,40480
2022-11-26T11:13:02.297Z,45568
2022-11-26T11:14:02.896Z,44704
2022-11-26T11:15:03.502Z,53344
2022-11-26T11:16:04.130Z,24768
2022-11-26T11:17:04.699Z,29312
2022-11-26T11:18:05.300Z,42144
2022-11-26T11:19:05.897Z,21888
2022-11-26T11:20:06.538Z,20384
2022-11-26T11:21:07.115Z,25440
2022-11-26T11:22:07.725Z,20800
2022-11-26T11:23:08.323Z,20000
2022-11-26T11:24:09.451Z,19456
2022-11-26T11:25:09.537Z,28896
2022-11-26T11:26:10.142Z,47680
2022-11-26T11:27:10.742Z,41216
2022-11-26T11:28:12.577Z,50016
2022-11-26T11:29:12.934Z,34944
2022-11-26T11:30:13.537Z,50912
2022-11-26T11:31:14.183Z,42240
2022-11-26T11:32:14.755Z,54656
2022-11-26T11:33:15.377Z,34464
2022-11-26T11:34:15.979Z,34304
2022-11-26T11:35:16.582Z,52992
2022-11-26T11:36:17.181Z,31936
2022-11-26T11:37:17.784Z,53728
2022-11-26T11:38:18.386Z,50624
2022-11-26T11:39:18.989Z,47968
2022-11-26T11:40:19.591Z,50688
2022-11-26T11:41:20.193Z,51552
2022-11-26T11:42:20.794Z,50272
2022-11-26T11:43:21.398Z,48608
2022-11-26T11:44:21.997Z,51296
2022-11-26T11:45:22.618Z,47584
2022-11-26T11:46:23.249Z,47264
2022-11-26T11:47:23.806Z,44864
2022-11-26T11:48:24.406Z,41824
2022-11-26T11:49:25.007Z,39104
2022-11-26T11:50:25.609Z,42656
2022-11-26T11:51:26.211Z,49504
2022-11-26T11:52:26.812Z,51680
2022-11-26T11:53:27.413Z,49152
2022-11-26T11:54:28.016Z,46304
2022-11-26T11:55:28.618Z,46656
2022-11-26T11:56:29.220Z,48640
2022-11-26T11:57:29.822Z,49568
2022-11-26T11:58:30.422Z,48736
2022-11-26T11:59:31.024Z,45696
2022-11-26T12:00:31.626Z,47776
2022-11-26T12:01:32.227Z,51712
2022-11-26T12:02:32.885Z,52512
2022-11-26T12:03:33.447Z,51072
2022-11-26T12:04:34.059Z,47872
2022-11-26T12:05:34.649Z,45280
2022-11-26T12:06:35.248Z,45696
2022-11-26T12:07:35.868Z,48576
2022-11-26T12:08:36.494Z,48608
2022-11-26T12:09:37.097Z,45888
2022-11-26T12:10:37.697Z,40768
2022-11-26T12:11:38.297Z,35328
2022-11-26T12:12:38.896Z,34880
2022-11-26T12:13:39.501Z,44480
2022-11-26T12:14:40.120Z,48672
2022-11-26T12:15:40.723Z,39936
2022-11-26T12:16:41.411Z,46784
2022-11-26T12:17:41.936Z,43424
2022-11-26T12:18:42.537Z,38144
2022-11-26T12:19:43.137Z,40320
2022-11-26T12:20:43.758Z,42848
2022-11-26T12:21:44.361Z,46240
2022-11-26T12:22:44.981Z,47744
2022-11-26T12:23:45.627Z,47840
2022-11-26T12:24:46.182Z,44832
2022-11-26T12:25:46.786Z,39808
2022-11-26T12:26:47.385Z,37376
2022-11-26T12:27:47.989Z,37472
2022-11-26T12:28:51.553Z,38528
2022-11-26T12:29:50.187Z,36640
2022-11-26T12:30:50.780Z,35392
2022-11-26T12:31:51.459Z,41632
2022-11-26T12:32:52.000Z,37408
2022-11-26T12:33:52.606Z,30688
2022-11-26T12:34:53.205Z,30112
2022-11-26T12:35:53.806Z,31968
2022-11-26T12:36:54.405Z,31232
2022-11-26T12:37:55.008Z,36768
2022-11-26T12:38:55.606Z,36896
2022-11-26T12:39:56.211Z,37216
2022-11-26T12:40:56.810Z,30848
2022-11-26T12:41:57.410Z,28992
2022-11-26T12:42:58.015Z,27168
2022-11-26T12:43:58.612Z,27040
2022-11-26T12:44:59.214Z,23680
2022-11-26T12:45:59.895Z,21280
2022-11-26T12:47:00.509Z,21824
2022-11-26T12:48:01.113Z,19680
2022-11-26T12:49:01.732Z,18528
2022-11-26T12:50:02.357Z,15256
2022-11-26T12:51:02.931Z,13164
2022-11-26T12:52:03.533Z,14188
2022-11-26T12:53:04.131Z,14704
2022-11-26T12:54:04.751Z,15092
2022-11-26T12:55:05.350Z,14468
2022-11-26T12:56:05.949Z,14440
2022-11-26T12:57:06.547Z,14924
2022-11-26T12:58:07.148Z,15928
2022-11-26T12:59:07.744Z,15660
2022-11-26T13:00:08.352Z,15256
2022-11-26T13:01:08.962Z,15368
2022-11-26T13:02:09.591Z,15372
2022-11-26T13:03:10.158Z,15308
2022-11-26T13:04:38.960Z,15988
2022-11-26T13:05:12.350Z,15668
2022-11-26T13:06:12.953Z,15664
2022-11-26T13:07:13.566Z,16644
2022-11-26T13:08:14.151Z,16920
2022-11-26T13:09:15.526Z,16828
2022-11-26T13:10:16.132Z,17120
2022-11-26T13:11:16.732Z,16992
2022-11-26T13:12:17.331Z,18528
2022-11-26T13:13:17.950Z,19264
2022-11-26T13:14:18.569Z,17440
2022-11-26T13:15:19.152Z,18976
2022-11-26T13:16:19.777Z,18368
2022-11-26T13:17:20.379Z,15940
2022-11-26T13:18:20.977Z,18080
2022-11-26T13:19:21.579Z,19744
2022-11-26T13:20:22.179Z,18944
2022-11-26T13:21:22.779Z,17504
2022-11-26T13:22:23.380Z,17344
2022-11-26T13:23:23.977Z,17216
2022-11-26T13:24:24.578Z,16948
2022-11-26T13:25:25.196Z,15488
2022-11-26T13:26:25.815Z,15708
2022-11-26T13:27:26.414Z,15388
2022-11-26T13:28:27.016Z,14916
2022-11-26T13:29:27.615Z,13764
2022-11-26T13:30:28.216Z,13556
2022-11-26T13:31:28.858Z,15096
2022-11-26T13:32:29.412Z,15724
2022-11-26T13:33:30.009Z,15828
2022-11-26T13:34:30.608Z,15276
2022-11-26T13:35:31.208Z,15136
2022-11-26T13:36:31.808Z,15200
2022-11-26T13:37:32.412Z,14848
2022-11-26T13:38:33.011Z,14540
2022-11-26T13:39:33.631Z,15824
2022-11-26T13:40:34.231Z,15852
2022-11-26T13:41:34.832Z,15768
2022-11-26T13:42:35.434Z,15728
2022-11-26T13:43:36.035Z,15620
2022-11-26T13:44:37.047Z,14976
2022-11-26T13:45:37.772Z,14808
2022-11-26T13:46:38.333Z,14480
2022-11-26T13:47:38.933Z,13624
2022-11-26T13:48:39.532Z,13024
2022-11-26T13:49:40.132Z,12416
2022-11-26T13:50:40.730Z,11904
2022-11-26T13:51:41.330Z,11432
2022-11-26T13:52:41.931Z,11112
2022-11-26T13:53:42.551Z,10756
2022-11-26T13:54:43.169Z,10436
2022-11-26T13:55:43.767Z,10176
2022-11-26T13:56:44.366Z,9904
2022-11-26T13:57:44.964Z,9564
2022-11-26T13:58:45.562Z,9188
2022-11-26T13:59:46.160Z,8884
2022-11-26T14:00:46.786Z,8616